sensor_id;sensor_type;location;lat;lon;timestamp;temperature;humidity
69823;SHT31;57119;52.516;13.508;2022-07-06T00:02:03;15.92;70.06
69823;SHT31;57119;52.516;13.508;2022-07-06T00:04:29;15.94;70.08
69823;SHT31;57119;52.516;13.508;2022-07-06T00:06:54;15.94;69.87
69823;SHT31;57119;52.516;13.508;2022-07-06T00:09:19;15.92;70.64
69823;SHT31;57119;52.516;13.508;2022-07-06T00:11:45;15.85;69.72
69823;SHT31;57119;52.516;13.508;2022-07-06T00:14:10;15.87;70.89
69823;SHT31;57119;52.516;13.508;2022-07-06T00:16:36;15.81;70.85
69823;SHT31;57119;52.516;13.508;2022-07-06T00:19:01;15.74;71.04
69823;SHT31;57119;52.516;13.508;2022-07-06T00:21:26;15.67;70.74
69823;SHT31;57119;52.516;13.508;2022-07-06T00:23:52;15.60;71.15
69823;SHT31;57119;52.516;13.508;2022-07-06T00:26:18;15.51;71.41
69823;SHT31;57119;52.516;13.508;2022-07-06T00:28:44;15.57;71.66
69823;SHT31;57119;52.516;13.508;2022-07-06T00:31:09;15.42;71.17
69823;SHT31;57119;52.516;13.508;2022-07-06T00:33:34;15.37;71.98
69823;SHT31;57119;52.516;13.508;2022-07-06T00:36:00;15.32;72.65
69823;SHT31;57119;52.516;13.508;2022-07-06T00:38:25;15.33;73.17
69823;SHT31;57119;52.516;13.508;2022-07-06T00:40:51;15.22;72.95
69823;SHT31;57119;52.516;13.508;2022-07-06T00:43:16;15.30;73.99
69823;SHT31;57119;52.516;13.508;2022-07-06T00:45:41;15.25;73.69
69823;SHT31;57119;52.516;13.508;2022-07-06T00:48:08;15.23;72.99
69823;SHT31;57119;52.516;13.508;2022-07-06T00:50:34;15.22;73.47
69823;SHT31;57119;52.516;13.508;2022-07-06T00:53:02;15.18;74.04
69823;SHT31;57119;52.516;13.508;2022-07-06T00:55:29;15.20;74.06
69823;SHT31;57119;52.516;13.508;2022-07-06T00:57:56;15.20;73.91
69823;SHT31;57119;52.516;13.508;2022-07-06T01:00:24;15.15;74.01
69823;SHT31;57119;52.516;13.508;2022-07-06T01:02:50;15.08;73.43
69823;SHT31;57119;52.516;13.508;2022-07-06T01:05:16;15.12;73.75
69823;SHT31;57119;52.516;13.508;2022-07-06T01:07:44;15.06;74.62
69823;SHT31;57119;52.516;13.508;2022-07-06T01:10:12;15.03;74.86
69823;SHT31;57119;52.516;13.508;2022-07-06T01:12:39;15.03;74.29
69823;SHT31;57119;52.516;13.508;2022-07-06T01:15:08;14.95;74.30
69823;SHT31;57119;52.516;13.508;2022-07-06T01:17:33;14.92;74.51
69823;SHT31;57119;52.516;13.508;2022-07-06T01:20:17;14.96;74.61
69823;SHT31;57119;52.516;13.508;2022-07-06T01:22:44;14.93;74.65
69823;SHT31;57119;52.516;13.508;2022-07-06T01:25:10;14.89;74.83
69823;SHT31;57119;52.516;13.508;2022-07-06T01:27:37;14.81;74.33
69823;SHT31;57119;52.516;13.508;2022-07-06T01:30:22;14.78;75.50
69823;SHT31;57119;52.516;13.508;2022-07-06T01:32:47;14.64;75.37
69823;SHT31;57119;52.516;13.508;2022-07-06T01:35:14;14.58;75.27
69823;SHT31;57119;52.516;13.508;2022-07-06T01:37:41;14.60;75.14
69823;SHT31;57119;52.516;13.508;2022-07-06T01:40:08;14.60;74.82
69823;SHT31;57119;52.516;13.508;2022-07-06T01:42:34;14.60;75.20
69823;SHT31;57119;52.516;13.508;2022-07-06T01:45:00;14.60;74.88
69823;SHT31;57119;52.516;13.508;2022-07-06T01:47:26;14.71;75.14
69823;SHT31;57119;52.516;13.508;2022-07-06T01:49:52;14.85;76.00
69823;SHT31;57119;52.516;13.508;2022-07-06T01:52:17;14.89;75.02
69823;SHT31;57119;52.516;13.508;2022-07-06T01:54:43;14.96;75.35
69823;SHT31;57119;52.516;13.508;2022-07-06T01:57:09;15.00;74.02
69823;SHT31;57119;52.516;13.508;2022-07-06T01:59:34;15.05;74.47
69823;SHT31;57119;52.516;13.508;2022-07-06T02:02:00;15.13;72.92
69823;SHT31;57119;52.516;13.508;2022-07-06T02:04:26;15.19;72.47
69823;SHT31;57119;52.516;13.508;2022-07-06T02:06:51;15.35;71.56
69823;SHT31;57119;52.516;13.508;2022-07-06T02:09:16;15.49;71.31
69823;SHT31;57119;52.516;13.508;2022-07-06T02:11:42;15.60;70.75
69823;SHT31;57119;52.516;13.508;2022-07-06T02:14:08;15.71;70.64
69823;SHT31;57119;52.516;13.508;2022-07-06T02:16:33;15.75;70.24
69823;SHT31;57119;52.516;13.508;2022-07-06T02:18:59;15.85;69.82
69823;SHT31;57119;52.516;13.508;2022-07-06T02:21:24;15.90;69.92
69823;SHT31;57119;52.516;13.508;2022-07-06T02:23:50;16.01;70.61
69823;SHT31;57119;52.516;13.508;2022-07-06T02:26:15;16.06;70.26
69823;SHT31;57119;52.516;13.508;2022-07-06T02:28:41;16.13;70.39
69823;SHT31;57119;52.516;13.508;2022-07-06T02:31:06;16.11;70.85
69823;SHT31;57119;52.516;13.508;2022-07-06T02:33:31;16.18;71.21
69823;SHT31;57119;52.516;13.508;2022-07-06T02:35:57;16.13;72.70
69823;SHT31;57119;52.516;13.508;2022-07-06T02:38:22;16.04;74.71
69823;SHT31;57119;52.516;13.508;2022-07-06T02:40:47;15.97;74.19
69823;SHT31;57119;52.516;13.508;2022-07-06T02:43:13;15.85;77.73
69823;SHT31;57119;52.516;13.508;2022-07-06T02:45:38;15.75;75.59
69823;SHT31;57119;52.516;13.508;2022-07-06T02:48:04;15.71;76.99
69823;SHT31;57119;52.516;13.508;2022-07-06T02:50:29;15.63;77.06
69823;SHT31;57119;52.516;13.508;2022-07-06T02:52:55;15.49;81.86
69823;SHT31;57119;52.516;13.508;2022-07-06T02:55:20;15.33;80.90
69823;SHT31;57119;52.516;13.508;2022-07-06T02:57:46;15.32;81.79
69823;SHT31;57119;52.516;13.508;2022-07-06T03:00:12;15.30;81.54
69823;SHT31;57119;52.516;13.508;2022-07-06T03:02:38;15.36;82.85
69823;SHT31;57119;52.516;13.508;2022-07-06T03:05:03;15.37;84.10
69823;SHT31;57119;52.516;13.508;2022-07-06T03:07:29;15.39;83.15
69823;SHT31;57119;52.516;13.508;2022-07-06T03:09:54;15.35;84.42
69823;SHT31;57119;52.516;13.508;2022-07-06T03:12:19;15.39;85.41
69823;SHT31;57119;52.516;13.508;2022-07-06T03:14:45;15.36;86.16
69823;SHT31;57119;52.516;13.508;2022-07-06T03:17:10;15.27;87.49
69823;SHT31;57119;52.516;13.508;2022-07-06T03:19:36;15.30;86.30
69823;SHT31;57119;52.516;13.508;2022-07-06T03:22:02;15.30;84.86
69823;SHT31;57119;52.516;13.508;2022-07-06T03:24:27;15.20;84.62
69823;SHT31;57119;52.516;13.508;2022-07-06T03:26:53;15.16;84.65
69823;SHT31;57119;52.516;13.508;2022-07-06T03:29:18;15.22;85.65
69823;SHT31;57119;52.516;13.508;2022-07-06T03:31:43;15.23;84.64
69823;SHT31;57119;52.516;13.508;2022-07-06T03:34:09;15.25;86.86
69823;SHT31;57119;52.516;13.508;2022-07-06T03:36:34;15.23;85.24
69823;SHT31;57119;52.516;13.508;2022-07-06T03:39:00;15.32;85.43
69823;SHT31;57119;52.516;13.508;2022-07-06T03:41:26;15.30;82.91
69823;SHT31;57119;52.516;13.508;2022-07-06T03:43:51;15.29;83.26
69823;SHT31;57119;52.516;13.508;2022-07-06T03:46:16;15.19;83.44
69823;SHT31;57119;52.516;13.508;2022-07-06T03:48:42;15.20;82.95
69823;SHT31;57119;52.516;13.508;2022-07-06T03:51:07;15.20;83.58
69823;SHT31;57119;52.516;13.508;2022-07-06T03:53:34;15.09;82.97
69823;SHT31;57119;52.516;13.508;2022-07-06T03:55:59;15.12;81.49
69823;SHT31;57119;52.516;13.508;2022-07-06T03:58:43;15.09;81.76
69823;SHT31;57119;52.516;13.508;2022-07-06T04:01:08;15.06;80.79
69823;SHT31;57119;52.516;13.508;2022-07-06T04:03:34;15.03;83.47
69823;SHT31;57119;52.516;13.508;2022-07-06T04:05:59;14.98;81.69
69823;SHT31;57119;52.516;13.508;2022-07-06T04:08:24;14.89;82.07
69823;SHT31;57119;52.516;13.508;2022-07-06T04:10:50;14.95;82.21
69823;SHT31;57119;52.516;13.508;2022-07-06T04:13:15;15.05;80.61
69823;SHT31;57119;52.516;13.508;2022-07-06T04:15:40;15.05;82.00
69823;SHT31;57119;52.516;13.508;2022-07-06T04:18:06;15.22;80.19
69823;SHT31;57119;52.516;13.508;2022-07-06T04:20:31;15.32;81.56
69823;SHT31;57119;52.516;13.508;2022-07-06T04:22:57;15.42;78.95
69823;SHT31;57119;52.516;13.508;2022-07-06T04:25:22;15.47;80.99
69823;SHT31;57119;52.516;13.508;2022-07-06T04:27:47;15.58;78.36
69823;SHT31;57119;52.516;13.508;2022-07-06T04:30:13;15.61;79.13
69823;SHT31;57119;52.516;13.508;2022-07-06T04:32:38;15.68;78.36
69823;SHT31;57119;52.516;13.508;2022-07-06T04:35:05;15.77;78.17
69823;SHT31;57119;52.516;13.508;2022-07-06T04:37:31;15.83;77.18
69823;SHT31;57119;52.516;13.508;2022-07-06T04:39:56;15.75;78.19
69823;SHT31;57119;52.516;13.508;2022-07-06T04:42:22;15.73;77.40
69823;SHT31;57119;52.516;13.508;2022-07-06T04:44:47;15.54;77.28
69823;SHT31;57119;52.516;13.508;2022-07-06T04:47:13;15.53;78.11
69823;SHT31;57119;52.516;13.508;2022-07-06T04:49:39;15.37;77.99
69823;SHT31;57119;52.516;13.508;2022-07-06T04:52:05;15.44;76.86
69823;SHT31;57119;52.516;13.508;2022-07-06T04:54:30;15.46;77.04
69823;SHT31;57119;52.516;13.508;2022-07-06T04:56:56;15.51;76.33
69823;SHT31;57119;52.516;13.508;2022-07-06T04:59:21;15.57;76.78
69823;SHT31;57119;52.516;13.508;2022-07-06T05:01:46;15.73;76.13
69823;SHT31;57119;52.516;13.508;2022-07-06T05:04:12;15.75;75.74
69823;SHT31;57119;52.516;13.508;2022-07-06T05:06:38;15.84;75.69
69823;SHT31;57119;52.516;13.508;2022-07-06T05:09:05;16.00;75.39
69823;SHT31;57119;52.516;13.508;2022-07-06T05:11:30;16.00;75.06
69823;SHT31;57119;52.516;13.508;2022-07-06T05:13:55;16.09;75.34
69823;SHT31;57119;52.516;13.508;2022-07-06T05:16:21;16.21;74.91
69823;SHT31;57119;52.516;13.508;2022-07-06T05:18:47;16.19;74.32
69823;SHT31;57119;52.516;13.508;2022-07-06T05:21:13;16.11;74.28
69823;SHT31;57119;52.516;13.508;2022-07-06T05:23:39;16.15;74.78
69823;SHT31;57119;52.516;13.508;2022-07-06T05:26:04;16.23;73.67
69823;SHT31;57119;52.516;13.508;2022-07-06T05:28:30;16.26;72.98
69823;SHT31;57119;52.516;13.508;2022-07-06T05:30:55;16.38;73.98
69823;SHT31;57119;52.516;13.508;2022-07-06T05:33:20;16.41;73.12
69823;SHT31;57119;52.516;13.508;2022-07-06T05:35:46;16.52;72.51
69823;SHT31;57119;52.516;13.508;2022-07-06T05:38:11;16.57;71.55
69823;SHT31;57119;52.516;13.508;2022-07-06T05:40:37;16.59;71.35
69823;SHT31;57119;52.516;13.508;2022-07-06T05:43:02;16.59;71.45
69823;SHT31;57119;52.516;13.508;2022-07-06T05:45:28;16.67;70.76
69823;SHT31;57119;52.516;13.508;2022-07-06T05:47:53;16.74;71.36
69823;SHT31;57119;52.516;13.508;2022-07-06T05:50:37;16.88;70.45
69823;SHT31;57119;52.516;13.508;2022-07-06T05:53:04;16.92;71.07
69823;SHT31;57119;52.516;13.508;2022-07-06T05:55:30;16.97;70.19
69823;SHT31;57119;52.516;13.508;2022-07-06T05:57:55;17.00;69.14
69823;SHT31;57119;52.516;13.508;2022-07-06T06:00:22;17.04;68.98
69823;SHT31;57119;52.516;13.508;2022-07-06T06:02:48;17.15;69.42
69823;SHT31;57119;52.516;13.508;2022-07-06T06:05:14;17.34;68.67
69823;SHT31;57119;52.516;13.508;2022-07-06T06:07:40;17.32;67.71
69823;SHT31;57119;52.516;13.508;2022-07-06T06:10:08;17.35;68.30
69823;SHT31;57119;52.516;13.508;2022-07-06T06:12:34;17.48;67.96
69823;SHT31;57119;52.516;13.508;2022-07-06T06:14:59;17.53;67.30
69823;SHT31;57119;52.516;13.508;2022-07-06T06:17:25;17.67;67.78
69823;SHT31;57119;52.516;13.508;2022-07-06T06:19:50;17.70;67.65
69823;SHT31;57119;52.516;13.508;2022-07-06T06:22:15;17.79;67.31
69823;SHT31;57119;52.516;13.508;2022-07-06T06:24:41;17.97;67.15
69823;SHT31;57119;52.516;13.508;2022-07-06T06:27:06;18.01;65.52
69823;SHT31;57119;52.516;13.508;2022-07-06T06:29:32;18.17;66.94
69823;SHT31;57119;52.516;13.508;2022-07-06T06:31:57;18.31;66.09
69823;SHT31;57119;52.516;13.508;2022-07-06T06:34:22;18.48;65.58
69823;SHT31;57119;52.516;13.508;2022-07-06T06:36:48;18.66;65.31
69823;SHT31;57119;52.516;13.508;2022-07-06T06:39:13;18.82;64.99
69823;SHT31;57119;52.516;13.508;2022-07-06T06:41:39;18.99;65.33
69823;SHT31;57119;52.516;13.508;2022-07-06T06:44:04;18.85;63.93
69823;SHT31;57119;52.516;13.508;2022-07-06T06:46:29;18.86;64.21
69823;SHT31;57119;52.516;13.508;2022-07-06T06:48:55;19.06;64.01
69823;SHT31;57119;52.516;13.508;2022-07-06T06:51:20;19.23;63.38
69823;SHT31;57119;52.516;13.508;2022-07-06T06:53:46;19.16;63.39
69823;SHT31;57119;52.516;13.508;2022-07-06T06:56:11;18.59;62.93
69823;SHT31;57119;52.516;13.508;2022-07-06T06:58:37;18.34;64.23
69823;SHT31;57119;52.516;13.508;2022-07-06T07:01:02;18.93;64.08
69823;SHT31;57119;52.516;13.508;2022-07-06T07:03:27;19.44;63.02
69823;SHT31;57119;52.516;13.508;2022-07-06T07:05:53;19.60;60.78
69823;SHT31;57119;52.516;13.508;2022-07-06T07:08:18;20.05;61.64
69823;SHT31;57119;52.516;13.508;2022-07-06T07:10:43;20.30;61.01
69823;SHT31;57119;52.516;13.508;2022-07-06T07:13:09;19.77;59.79
69823;SHT31;57119;52.516;13.508;2022-07-06T07:15:34;19.95;60.25
69823;SHT31;57119;52.516;13.508;2022-07-06T07:18:00;19.68;59.99
69823;SHT31;57119;52.516;13.508;2022-07-06T07:20:26;19.68;61.18
69823;SHT31;57119;52.516;13.508;2022-07-06T07:22:51;20.08;60.70
69823;SHT31;57119;52.516;13.508;2022-07-06T07:25:16;20.13;58.47
69823;SHT31;57119;52.516;13.508;2022-07-06T07:27:42;19.95;59.89
69823;SHT31;57119;52.516;13.508;2022-07-06T07:30:08;20.30;60.42
69823;SHT31;57119;52.516;13.508;2022-07-06T07:32:33;20.30;59.70
69823;SHT31;57119;52.516;13.508;2022-07-06T07:34:59;20.29;58.23
69823;SHT31;57119;52.516;13.508;2022-07-06T07:37:24;19.68;57.96
69823;SHT31;57119;52.516;13.508;2022-07-06T07:39:49;19.13;59.69
69823;SHT31;57119;52.516;13.508;2022-07-06T07:42:15;19.17;61.16
69823;SHT31;57119;52.516;13.508;2022-07-06T07:44:40;19.50;60.00
69823;SHT31;57119;52.516;13.508;2022-07-06T07:47:06;19.58;58.23
69823;SHT31;57119;52.516;13.508;2022-07-06T07:49:31;19.48;57.32
69823;SHT31;57119;52.516;13.508;2022-07-06T07:51:57;18.99;58.79
69823;SHT31;57119;52.516;13.508;2022-07-06T07:54:23;18.73;58.34
69823;SHT31;57119;52.516;13.508;2022-07-06T07:56:48;19.74;57.51
69823;SHT31;57119;52.516;13.508;2022-07-06T07:59:13;20.68;56.50
69823;SHT31;57119;52.516;13.508;2022-07-06T08:01:39;20.99;51.82
69823;SHT31;57119;52.516;13.508;2022-07-06T08:04:05;21.45;50.81
69823;SHT31;57119;52.516;13.508;2022-07-06T08:06:30;21.71;50.21
69823;SHT31;57119;52.516;13.508;2022-07-06T08:08:55;21.36;51.69
69823;SHT31;57119;52.516;13.508;2022-07-06T08:11:21;20.90;53.24
69823;SHT31;57119;52.516;13.508;2022-07-06T08:13:46;20.77;53.21
69823;SHT31;57119;52.516;13.508;2022-07-06T08:16:12;20.83;54.28
69823;SHT31;57119;52.516;13.508;2022-07-06T08:18:37;20.58;54.11
69823;SHT31;57119;52.516;13.508;2022-07-06T08:21:03;20.39;55.03
69823;SHT31;57119;52.516;13.508;2022-07-06T08:23:29;20.23;56.77
69823;SHT31;57119;52.516;13.508;2022-07-06T08:25:54;20.50;56.44
69823;SHT31;57119;52.516;13.508;2022-07-06T08:28:19;20.65;54.21
69823;SHT31;57119;52.516;13.508;2022-07-06T08:30:45;21.06;51.64
69823;SHT31;57119;52.516;13.508;2022-07-06T08:33:10;21.28;52.86
69823;SHT31;57119;52.516;13.508;2022-07-06T08:35:35;20.75;51.65
69823;SHT31;57119;52.516;13.508;2022-07-06T08:38:01;20.25;53.80
69823;SHT31;57119;52.516;13.508;2022-07-06T08:40:32;20.19;55.26
69823;SHT31;57119;52.516;13.508;2022-07-06T08:42:59;20.27;54.44
69823;SHT31;57119;52.516;13.508;2022-07-06T08:45:25;20.25;55.28
69823;SHT31;57119;52.516;13.508;2022-07-06T08:47:53;20.02;55.53
69823;SHT31;57119;52.516;13.508;2022-07-06T08:50:19;20.58;54.89
69823;SHT31;57119;52.516;13.508;2022-07-06T08:52:47;20.17;53.95
69823;SHT31;57119;52.516;13.508;2022-07-06T08:55:13;20.27;54.34
69823;SHT31;57119;52.516;13.508;2022-07-06T08:57:39;20.09;53.82
69823;SHT31;57119;52.516;13.508;2022-07-06T09:00:08;20.15;53.48
69823;SHT31;57119;52.516;13.508;2022-07-06T09:02:34;19.74;53.44
69823;SHT31;57119;52.516;13.508;2022-07-06T09:05:02;19.68;53.86
69823;SHT31;57119;52.516;13.508;2022-07-06T09:07:28;19.69;51.53
69823;SHT31;57119;52.516;13.508;2022-07-06T09:09:54;19.58;52.11
69823;SHT31;57119;52.516;13.508;2022-07-06T09:12:19;19.67;50.09
69823;SHT31;57119;52.516;13.508;2022-07-06T09:14:45;19.81;49.26
69823;SHT31;57119;52.516;13.508;2022-07-06T09:17:11;19.88;49.87
69823;SHT31;57119;52.516;13.508;2022-07-06T09:19:37;19.98;49.09
69823;SHT31;57119;52.516;13.508;2022-07-06T09:22:03;20.10;48.42
69823;SHT31;57119;52.516;13.508;2022-07-06T09:24:29;20.74;49.06
69823;SHT31;57119;52.516;13.508;2022-07-06T09:26:57;20.91;48.47
69823;SHT31;57119;52.516;13.508;2022-07-06T09:29:32;21.38;48.99
69823;SHT31;57119;52.516;13.508;2022-07-06T09:31:59;21.66;47.94
69823;SHT31;57119;52.516;13.508;2022-07-06T09:34:40;21.87;46.71
69823;SHT31;57119;52.516;13.508;2022-07-06T09:37:06;21.63;47.22
69823;SHT31;57119;52.516;13.508;2022-07-06T09:39:31;21.19;46.61
69823;SHT31;57119;52.516;13.508;2022-07-06T09:41:59;22.11;45.23
69823;SHT31;57119;52.516;13.508;2022-07-06T09:44:29;21.54;45.86
69823;SHT31;57119;52.516;13.508;2022-07-06T09:46:57;21.08;45.57
69823;SHT31;57119;52.516;13.508;2022-07-06T09:49:22;20.88;45.19
69823;SHT31;57119;52.516;13.508;2022-07-06T09:51:50;20.20;46.63
69823;SHT31;57119;52.516;13.508;2022-07-06T09:54:15;20.05;48.72
69823;SHT31;57119;52.516;13.508;2022-07-06T09:56:43;20.05;47.45
69823;SHT31;57119;52.516;13.508;2022-07-06T09:59:12;19.82;47.68
69823;SHT31;57119;52.516;13.508;2022-07-06T10:01:39;19.92;48.13
69823;SHT31;57119;52.516;13.508;2022-07-06T10:04:12;20.29;48.03
69823;SHT31;57119;52.516;13.508;2022-07-06T10:06:39;20.71;47.23
69823;SHT31;57119;52.516;13.508;2022-07-06T10:09:09;20.65;48.36
69823;SHT31;57119;52.516;13.508;2022-07-06T10:11:38;20.88;49.50
69823;SHT31;57119;52.516;13.508;2022-07-06T10:14:05;21.50;48.87
69823;SHT31;57119;52.516;13.508;2022-07-06T10:16:31;21.77;48.75
69823;SHT31;57119;52.516;13.508;2022-07-06T10:18:59;21.18;47.07
69823;SHT31;57119;52.516;13.508;2022-07-06T10:21:26;20.80;48.33
69823;SHT31;57119;52.516;13.508;2022-07-06T10:23:53;20.43;49.15
69823;SHT31;57119;52.516;13.508;2022-07-06T10:26:20;20.36;51.56
69823;SHT31;57119;52.516;13.508;2022-07-06T10:28:47;20.78;49.80
69823;SHT31;57119;52.516;13.508;2022-07-06T10:31:15;20.68;49.52
69823;SHT31;57119;52.516;13.508;2022-07-06T10:33:41;21.38;49.83
69823;SHT31;57119;52.516;13.508;2022-07-06T10:36:07;21.80;48.52
69823;SHT31;57119;52.516;13.508;2022-07-06T10:38:34;22.25;47.75
69823;SHT31;57119;52.516;13.508;2022-07-06T10:41:07;22.76;46.88
69823;SHT31;57119;52.516;13.508;2022-07-06T10:46:14;22.35;48.03
69823;SHT31;57119;52.516;13.508;2022-07-06T10:48:44;22.70;46.11
69823;SHT31;57119;52.516;13.508;2022-07-06T10:51:26;22.48;45.51
69823;SHT31;57119;52.516;13.508;2022-07-06T10:53:57;22.83;45.07
69823;SHT31;57119;52.516;13.508;2022-07-06T10:56:35;22.66;44.57
69823;SHT31;57119;52.516;13.508;2022-07-06T10:59:03;23.27;43.49
69823;SHT31;57119;52.516;13.508;2022-07-06T11:01:34;24.68;43.58
69823;SHT31;57119;52.516;13.508;2022-07-06T11:06:25;24.74;41.70
69823;SHT31;57119;52.516;13.508;2022-07-06T11:09:07;26.17;40.58
69823;SHT31;57119;52.516;13.508;2022-07-06T11:13:59;26.56;41.69
69823;SHT31;57119;52.516;13.508;2022-07-06T11:16:28;26.25;40.51
69823;SHT31;57119;52.516;13.508;2022-07-06T11:19:04;24.98;40.91
69823;SHT31;57119;52.516;13.508;2022-07-06T11:24:09;24.12;42.29
69823;SHT31;57119;52.516;13.508;2022-07-06T11:26:35;25.75;42.13
69823;SHT31;57119;52.516;13.508;2022-07-06T11:29:04;25.20;41.89
69823;SHT31;57119;52.516;13.508;2022-07-06T11:31:33;23.69;42.73
69823;SHT31;57119;52.516;13.508;2022-07-06T11:33:58;22.77;45.25
69823;SHT31;57119;52.516;13.508;2022-07-06T11:36:24;21.98;46.97
69823;SHT31;57119;52.516;13.508;2022-07-06T11:38:50;21.59;48.68
69823;SHT31;57119;52.516;13.508;2022-07-06T11:41:17;21.53;49.21
69823;SHT31;57119;52.516;13.508;2022-07-06T11:43:43;21.96;49.57
69823;SHT31;57119;52.516;13.508;2022-07-06T11:48:52;22.29;47.02
69823;SHT31;57119;52.516;13.508;2022-07-06T11:51:18;22.21;46.01
69823;SHT31;57119;52.516;13.508;2022-07-06T11:53:48;22.32;45.87
69823;SHT31;57119;52.516;13.508;2022-07-06T11:56:17;21.71;47.37
69823;SHT31;57119;52.516;13.508;2022-07-06T11:58:49;22.48;47.51
69823;SHT31;57119;52.516;13.508;2022-07-06T12:01:15;23.13;46.24
69823;SHT31;57119;52.516;13.508;2022-07-06T12:03:42;23.69;44.90
69823;SHT31;57119;52.516;13.508;2022-07-06T12:06:19;24.57;44.47
69823;SHT31;57119;52.516;13.508;2022-07-06T12:08:54;24.96;40.85
69823;SHT31;57119;52.516;13.508;2022-07-06T12:13:53;25.80;39.24
69823;SHT31;57119;52.516;13.508;2022-07-06T12:16:20;26.09;39.46
69823;SHT31;57119;52.516;13.508;2022-07-06T12:18:47;26.50;40.56
69823;SHT31;57119;52.516;13.508;2022-07-06T12:21:15;25.83;41.02
69823;SHT31;57119;52.516;13.508;2022-07-06T12:23:46;24.77;42.45
69823;SHT31;57119;52.516;13.508;2022-07-06T12:26:14;24.50;42.39
69823;SHT31;57119;52.516;13.508;2022-07-06T12:28:40;24.21;43.98
69823;SHT31;57119;52.516;13.508;2022-07-06T12:31:06;23.69;44.23
69823;SHT31;57119;52.516;13.508;2022-07-06T12:33:32;23.03;47.09
69823;SHT31;57119;52.516;13.508;2022-07-06T12:36:09;23.27;45.25
69823;SHT31;57119;52.516;13.508;2022-07-06T12:38:35;23.48;44.56
69823;SHT31;57119;52.516;13.508;2022-07-06T12:41:01;23.72;44.39
69823;SHT31;57119;52.516;13.508;2022-07-06T12:43:41;24.29;42.82
69823;SHT31;57119;52.516;13.508;2022-07-06T12:46:26;24.78;42.30
69823;SHT31;57119;52.516;13.508;2022-07-06T12:48:53;25.08;41.35
69823;SHT31;57119;52.516;13.508;2022-07-06T12:51:19;25.60;41.77
69823;SHT31;57119;52.516;13.508;2022-07-06T12:53:44;25.84;41.96
69823;SHT31;57119;52.516;13.508;2022-07-06T12:56:11;25.08;41.20
69823;SHT31;57119;52.516;13.508;2022-07-06T12:58:37;25.39;42.19
69823;SHT31;57119;52.516;13.508;2022-07-06T13:01:02;25.66;41.92
69823;SHT31;57119;52.516;13.508;2022-07-06T13:03:27;25.74;41.31
69823;SHT31;57119;52.516;13.508;2022-07-06T13:05:53;25.23;41.41
69823;SHT31;57119;52.516;13.508;2022-07-06T13:08:18;24.20;43.15
69823;SHT31;57119;52.516;13.508;2022-07-06T13:10:43;23.44;44.19
69823;SHT31;57119;52.516;13.508;2022-07-06T13:13:10;22.90;46.20
69823;SHT31;57119;52.516;13.508;2022-07-06T13:15:35;23.02;44.83
69823;SHT31;57119;52.516;13.508;2022-07-06T13:18:01;23.23;44.79
69823;SHT31;57119;52.516;13.508;2022-07-06T13:20:26;23.68;45.02
69823;SHT31;57119;52.516;13.508;2022-07-06T13:22:53;24.19;44.98
69823;SHT31;57119;52.516;13.508;2022-07-06T13:25:18;23.04;44.47
69823;SHT31;57119;52.516;13.508;2022-07-06T13:27:43;22.82;45.10
69823;SHT31;57119;52.516;13.508;2022-07-06T13:30:09;22.34;46.01
69823;SHT31;57119;52.516;13.508;2022-07-06T13:32:35;23.20;47.45
69823;SHT31;57119;52.516;13.508;2022-07-06T13:35:01;23.82;43.39
69823;SHT31;57119;52.516;13.508;2022-07-06T13:37:26;24.56;44.35
69823;SHT31;57119;52.516;13.508;2022-07-06T13:39:52;26.29;40.26
69823;SHT31;57119;52.516;13.508;2022-07-06T13:42:17;26.24;41.80
69823;SHT31;57119;52.516;13.508;2022-07-06T13:44:43;25.59;39.85
69823;SHT31;57119;52.516;13.508;2022-07-06T13:47:08;24.87;41.12
69823;SHT31;57119;52.516;13.508;2022-07-06T13:49:34;24.31;41.35
69823;SHT31;57119;52.516;13.508;2022-07-06T13:51:59;24.29;41.42
69823;SHT31;57119;52.516;13.508;2022-07-06T13:54:29;23.54;42.37
69823;SHT31;57119;52.516;13.508;2022-07-06T13:56:54;23.28;43.47
69823;SHT31;57119;52.516;13.508;2022-07-06T13:59:19;23.25;45.18
69823;SHT31;57119;52.516;13.508;2022-07-06T14:01:45;22.69;43.85
69823;SHT31;57119;52.516;13.508;2022-07-06T14:04:10;22.79;45.36
69823;SHT31;57119;52.516;13.508;2022-07-06T14:06:36;23.08;44.24
69823;SHT31;57119;52.516;13.508;2022-07-06T14:09:01;23.23;43.22
69823;SHT31;57119;52.516;13.508;2022-07-06T14:11:27;25.43;40.13
69823;SHT31;57119;52.516;13.508;2022-07-06T14:13:52;25.43;39.88
69823;SHT31;57119;52.516;13.508;2022-07-06T14:16:18;24.82;39.56
69823;SHT31;57119;52.516;13.508;2022-07-06T14:18:43;24.91;40.11
69823;SHT31;57119;52.516;13.508;2022-07-06T14:21:09;24.50;39.97
69823;SHT31;57119;52.516;13.508;2022-07-06T14:23:34;24.43;40.24
69823;SHT31;57119;52.516;13.508;2022-07-06T14:25:59;24.03;39.65
69823;SHT31;57119;52.516;13.508;2022-07-06T14:28:25;24.08;39.09
69823;SHT31;57119;52.516;13.508;2022-07-06T14:30:50;24.87;38.55
69823;SHT31;57119;52.516;13.508;2022-07-06T14:33:16;25.32;39.73
69823;SHT31;57119;52.516;13.508;2022-07-06T14:35:46;25.75;39.09
69823;SHT31;57119;52.516;13.508;2022-07-06T14:38:13;24.79;41.65
69823;SHT31;57119;52.516;13.508;2022-07-06T14:40:38;24.26;40.26
69823;SHT31;57119;52.516;13.508;2022-07-06T14:43:04;24.47;40.65
69823;SHT31;57119;52.516;13.508;2022-07-06T14:45:30;24.14;41.61
69823;SHT31;57119;52.516;13.508;2022-07-06T14:47:56;24.08;42.74
69823;SHT31;57119;52.516;13.508;2022-07-06T14:50:22;23.83;44.04
69823;SHT31;57119;52.516;13.508;2022-07-06T14:52:49;23.57;43.60
69823;SHT31;57119;52.516;13.508;2022-07-06T14:55:14;23.28;43.96
69823;SHT31;57119;52.516;13.508;2022-07-06T14:57:40;22.60;44.86
69823;SHT31;57119;52.516;13.508;2022-07-06T15:00:05;21.97;46.39
69823;SHT31;57119;52.516;13.508;2022-07-06T15:02:31;21.80;47.56
69823;SHT31;57119;52.516;13.508;2022-07-06T15:04:57;21.71;47.32
69823;SHT31;57119;52.516;13.508;2022-07-06T15:07:22;21.47;47.15
69823;SHT31;57119;52.516;13.508;2022-07-06T15:09:47;21.38;48.07
69823;SHT31;57119;52.516;13.508;2022-07-06T15:12:13;21.32;47.90
69823;SHT31;57119;52.516;13.508;2022-07-06T15:14:38;20.95;48.78
69823;SHT31;57119;52.516;13.508;2022-07-06T15:17:04;20.80;48.85
69823;SHT31;57119;52.516;13.508;2022-07-06T15:19:30;20.54;50.28
69823;SHT31;57119;52.516;13.508;2022-07-06T15:21:55;20.58;51.14
69823;SHT31;57119;52.516;13.508;2022-07-06T15:24:21;20.40;51.22
69823;SHT31;57119;52.516;13.508;2022-07-06T15:26:47;20.30;51.53